Time;durP1;ratioP1;P1;durP2;ratioP2;P2;SDS_P1;SDS_P2;PMS_P1;PMS_P2;Temp;Humidity;BMP_temperature;BMP_pressure;BME280_temperature;BME280_humidity;BME280_pressure;Samples;Min_cycle;Max_cycle;Signal;HPM_P1;HPM_P2
2023/01/17 00:01:12;;;;;;;5.15;1.40;;;3.40;99.90;;;;;;5020129;28;20040;-78
2023/01/17 00:09:51;;;;;;;9.40;1.58;;;3.40;99.90;;;;;;5018375;28;20029;-77
2023/01/17 00:11:57;;;;;;;6.78;1.50;;;3.50;99.90;;;;;;5053102;28;20094;-78
2023/01/17 00:14:23;;;;;;;6.85;1.33;;;3.50;99.90;;;;;;5034510;28;20387;-77
2023/01/17 00:16:48;;;;;;;5.57;1.30;;;3.50;99.90;;;;;;5029621;28;20175;-77
2023/01/17 01:33:50;;;;;;;3.08;0.90;;;2.60;99.90;;;;;;5032006;28;20052;-78
2023/01/17 01:36:16;;;;;;;4.55;0.88;;;2.60;99.90;;;;;;5033547;28;20048;-78
2023/01/17 01:38:42;;;;;;;2.33;0.63;;;2.60;99.90;;;;;;5017421;28;20388;-77
2023/01/17 01:41:07;;;;;;;3.10;0.68;;;2.50;99.90;;;;;;5017822;28;20025;-77
2023/01/17 01:43:51;;;;;;;1.70;0.70;;;2.50;99.90;;;;;;5033088;28;20059;-78
2023/01/17 01:46:25;;;;;;;6.45;1.08;;;2.50;99.90;;;;;;5013814;28;20136;-78
2023/01/17 01:48:54;;;;;;;4.18;0.70;;;2.50;99.90;;;;;;5032396;28;20049;-77
2023/01/17 01:51:32;;;;;;;2.60;0.65;;;2.50;99.90;;;;;;5017211;28;20344;-78
2023/01/17 01:54:09;;;;;;;4.72;1.45;;;2.40;99.90;;;;;;5032317;28;20407;-77
2023/01/17 01:56:35;;;;;;;4.95;0.75;;;2.40;99.90;;;;;;5046102;28;20041;-78
2023/01/17 01:59:05;;;;;;;6.32;1.00;;;2.40;99.90;;;;;;5040021;28;20116;-77
2023/01/17 02:01:31;;;;;;;3.08;1.10;;;2.30;99.90;;;;;;5050606;28;20631;-77
2023/01/17 02:03:57;;;;;;;4.28;1.17;;;2.30;99.90;;;;;;5027675;28;20748;-78
2023/01/17 02:06:33;;;;;;;3.33;0.88;;;2.20;99.90;;;;;;5033350;28;20083;-77
2023/01/17 02:09:05;;;;;;;5.82;1.00;;;2.20;99.90;;;;;;5033511;28;20109;-78
2023/01/17 02:11:32;;;;;;;;;;;2.10;99.90;;;;;;5035873;28;20028;-77
2023/01/17 02:13:58;;;;;;;3.33;0.80;;;2.10;99.90;;;;;;5044887;28;19917;-77
2023/01/17 02:16:35;;;;;;;6.22;1.20;;;2.00;99.90;;;;;;5038165;28;20510;-77
2023/01/17 02:19:15;;;;;;;5.70;0.90;;;2.00;99.90;;;;;;5024033;28;20086;-77
2023/01/17 02:22:00;;;;;;;2.45;0.63;;;2.10;99.90;;;;;;5033912;28;20047;-77
2023/01/17 02:24:34;;;;;;;4.00;0.70;;;2.00;99.90;;;;;;5044856;28;20032;-77
2023/01/17 02:27:27;;;;;;;7.80;0.93;;;2.00;99.90;;;;;;5040195;28;20090;-78
2023/01/17 02:30:17;;;;;;;4.28;0.80;;;2.00;99.90;;;;;;5025799;28;20124;-77
2023/01/17 02:33:12;;;;;;;3.90;1.10;;;2.00;99.90;;;;;;5036744;28;20099;-77
2023/01/17 02:36:04;;;;;;;4.07;0.90;;;2.00;99.90;;;;;;5050372;28;20052;-77
2023/01/17 02:38:30;;;;;;;3.58;1.00;;;2.00;99.90;;;;;;5035442;28;20047;-78
2023/01/17 02:41:12;;;;;;;3.65;0.88;;;2.10;99.90;;;;;;5036714;28;20557;-78
2023/01/17 02:43:38;;;;;;;3.28;0.77;;;2.10;99.90;;;;;;5019679;28;20062;-78
2023/01/17 02:46:04;;;;;;;7.70;1.02;;;2.10;99.90;;;;;;5020177;28;20045;-77
2023/01/17 02:48:32;;;;;;;6.03;0.90;;;2.10;99.90;;;;;;5019428;28;20427;-78
2023/01/17 02:51:25;;;;;;;5.03;0.90;;;2.10;99.90;;;;;;5045846;28;20459;-78
2023/01/17 02:54:15;;;;;;;4.20;0.90;;;2.10;99.90;;;;;;5037799;28;20487;-77
2023/01/17 02:57:01;;;;;;;6.65;1.02;;;2.10;99.90;;;;;;5016916;28;20052;-78
2023/01/17 02:59:29;;;;;;;7.50;1.45;;;2.10;99.90;;;;;;5036152;28;20029;-78
2023/01/17 03:02:14;;;;;;;5.13;0.80;;;2.10;99.90;;;;;;5044908;28;20037;-77
2023/01/17 03:04:47;;;;;;;7.93;1.13;;;2.00;99.90;;;;;;5028051;28;20034;-78
2023/01/17 03:07:17;;;;;;;8.35;1.17;;;2.00;99.90;;;;;;5040611;28;20115;-78
2023/01/17 03:09:45;;;;;;;5.85;1.15;;;2.00;99.90;;;;;;5019403;28;20082;-77
2023/01/17 03:12:12;;;;;;;4.10;0.70;;;2.00;99.90;;;;;;5019635;28;20072;-78
2023/01/17 03:14:37;;;;;;;2.97;0.95;;;1.90;99.90;;;;;;5023778;28;20046;-78
2023/01/17 03:17:04;;;;;;;7.35;1.10;;;1.90;99.90;;;;;;5045760;28;20037;-78
2023/01/17 03:19:30;;;;;;;4.10;1.00;;;1.90;99.90;;;;;;5018761;28;20166;-77
2023/01/17 03:21:56;;;;;;;8.20;1.33;;;1.90;99.90;;;;;;5036075;28;20055;-78
2023/01/17 03:24:22;;;;;;;7.93;1.08;;;1.90;99.90;;;;;;5019161;28;20025;-78
2023/01/17 03:26:47;;;;;;;5.88;1.05;;;1.90;99.90;;;;;;5019289;28;20037;-78
2023/01/17 03:29:15;;;;;;;3.67;0.77;;;1.90;99.90;;;;;;5018562;28;20051;-78
2023/01/17 03:31:41;;;;;;;5.97;0.95;;;1.90;99.90;;;;;;5011089;28;20479;-77
2023/01/17 03:34:07;;;;;;;5.60;1.10;;;1.90;99.90;;;;;;5034973;28;20048;-78
2023/01/17 03:36:32;;;;;;;4.50;1.10;;;1.80;99.90;;;;;;5035588;28;20407;-78
2023/01/17 03:38:58;;;;;;;8.32;1.40;;;1.80;99.90;;;;;;5017727;28;20037;-78
2023/01/17 03:41:24;;;;;;;7.47;1.38;;;1.80;99.90;;;;;;5028220;28;20037;-78
2023/01/17 03:43:49;;;;;;;6.82;0.88;;;1.70;99.90;;;;;;5021404;28;20033;-78
2023/01/17 03:46:26;;;;;;;6.25;0.68;;;1.70;99.90;;;;;;5035739;28;20080;-78
2023/01/17 03:48:52;;;;;;;4.95;0.80;;;1.60;99.90;;;;;;5035528;28;20037;-78
2023/01/17 03:51:17;;;;;;;5.00;1.05;;;1.60;99.90;;;;;;5034193;28;20045;-78
2023/01/17 03:53:45;;;;;;;7.47;1.02;;;1.50;99.90;;;;;;5017698;28;20037;-78
2023/01/17 03:56:12;;;;;;;9.23;1.20;;;1.40;99.90;;;;;;5040621;28;20048;-78
2023/01/17 03:58:37;;;;;;;4.38;0.98;;;1.40;99.90;;;;;;5018612;28;20506;-78
2023/01/17 04:01:03;;;;;;;6.30;1.00;;;1.30;99.90;;;;;;5034637;28;20067;-78
2023/01/17 04:03:29;;;;;;;5.38;1.90;;;1.30;99.90;;;;;;5019581;28;20048;-78
2023/01/17 04:05:54;;;;;;;8.60;3.42;;;1.30;99.90;;;;;;5015840;28;20045;-78
2023/01/17 04:08:20;;;;;;;7.55;1.45;;;1.20;99.90;;;;;;5004525;28;20043;-78
2023/01/17 04:10:45;;;;;;;6.00;1.83;;;1.20;99.90;;;;;;5027611;28;20605;-78
2023/01/17 04:13:12;;;;;;;6.63;1.33;;;1.20;99.90;;;;;;5035362;28;20037;-78
2023/01/17 04:15:38;;;;;;;4.35;1.10;;;1.20;99.90;;;;;;5036233;28;20037;-78
2023/01/17 04:18:05;;;;;;;6.93;1.23;;;1.20;99.90;;;;;;5039413;28;20063;-78
2023/01/17 04:20:36;;;;;;;7.75;1.10;;;1.10;99.90;;;;;;5036048;28;20115;-78
2023/01/17 04:23:02;;;;;;;4.22;0.85;;;1.10;99.90;;;;;;5028014;28;20043;-79
2023/01/17 04:25:29;;;;;;;2.95;0.90;;;1.00;99.90;;;;;;5026088;28;20041;-80
2023/01/17 04:27:56;;;;;;;6.10;0.90;;;1.00;99.90;;;;;;5031419;28;20492;-80
2023/01/17 04:30:22;;;;;;;5.90;0.88;;;0.90;99.90;;;;;;5032240;28;20077;-79
2023/01/17 04:32:47;;;;;;;7.13;1.42;;;1.00;99.90;;;;;;5032843;28;20049;-80
2023/01/17 04:35:13;;;;;;;8.13;0.90;;;1.00;99.90;;;;;;5034526;28;20031;-80
2023/01/17 04:37:39;;;;;;;5.47;1.35;;;1.00;99.90;;;;;;5034298;28;20098;-79
2023/01/17 04:40:05;;;;;;;8.10;3.60;;;0.90;99.90;;;;;;5035253;28;20077;-79
2023/01/17 04:42:31;;;;;;;7.75;2.00;;;0.90;99.90;;;;;;5020143;28;20502;-80
2023/01/17 04:44:56;;;;;;;6.15;1.70;;;0.80;99.90;;;;;;5019381;28;20049;-80
2023/01/17 04:47:22;;;;;;;7.45;1.42;;;0.80;99.90;;;;;;5018837;28;20395;-80
2023/01/17 04:49:48;;;;;;;4.82;1.55;;;0.80;99.90;;;;;;5046104;28;20041;-79
2023/01/17 04:52:14;;;;;;;7.10;1.55;;;0.90;99.90;;;;;;5035884;28;20041;-79
2023/01/17 04:54:40;;;;;;;6.90;2.80;;;0.90;99.90;;;;;;5019877;28;20037;-80
2023/01/17 04:57:06;;;;;;;5.28;1.35;;;0.90;99.90;;;;;;5033804;28;20045;-79
2023/01/17 04:59:31;;;;;;;4.95;1.10;;;0.90;99.90;;;;;;5023969;28;20115;-79
2023/01/17 05:01:57;;;;;;;4.32;0.82;;;0.90;99.90;;;;;;5055713;28;20033;-80
2023/01/17 05:04:22;;;;;;;5.75;1.05;;;0.90;99.90;;;;;;5033353;28;20029;-80
2023/01/17 05:06:48;;;;;;;7.18;0.85;;;0.80;99.90;;;;;;5034258;28;20086;-80
2023/01/17 05:09:14;;;;;;;5.85;0.63;;;0.80;99.90;;;;;;5031418;28;20033;-80
2023/01/17 05:11:39;;;;;;;4.60;0.50;;;0.70;99.90;;;;;;5051884;28;20041;-79
2023/01/17 05:14:05;;;;;;;7.47;1.50;;;0.70;99.90;;;;;;5031187;28;20033;-80
2023/01/17 05:16:30;;;;;;;6.75;2.72;;;0.60;99.90;;;;;;5034095;28;20094;-79
2023/01/17 05:18:56;;;;;;;7.07;1.70;;;0.60;99.90;;;;;;5034145;28;20041;-79
2023/01/17 05:21:22;;;;;;;1.13;0.60;;;0.50;99.90;;;;;;5034354;28;20483;-79
2023/01/17 05:23:48;;;;;;;6.78;1.05;;;0.50;99.90;;;;;;5017012;28;20126;-79
2023/01/17 05:26:14;;;;;;;6.47;1.00;;;0.40;99.90;;;;;;5015016;28;20045;-79
2023/01/17 05:28:39;;;;;;;8.88;1.10;;;0.40;99.90;;;;;;5032025;28;20131;-79
2023/01/17 05:31:05;;;;;;;4.07;0.77;;;0.40;99.90;;;;;;5018160;28;20135;-79
2023/01/17 05:33:31;;;;;;;4.63;0.55;;;0.40;99.90;;;;;;5035068;28;20619;-79
2023/01/17 05:35:57;;;;;;;5.60;0.90;;;0.40;99.90;;;;;;5033375;28;20040;-79
2023/01/17 05:38:23;;;;;;;8.43;1.23;;;0.40;99.90;;;;;;5033855;28;20036;-80
2023/01/17 05:40:49;;;;;;;0.90;0.70;;;0.40;99.90;;;;;;5017957;28;20498;-79
2023/01/17 05:43:15;;;;;;;12.45;1.60;;;0.40;99.90;;;;;;5017919;28;20068;-80
2023/01/17 05:45:40;;;;;;;5.38;1.10;;;0.40;99.90;;;;;;5016789;28;20458;-79
2023/01/17 05:48:06;;;;;;;7.22;1.17;;;0.40;99.90;;;;;;5017455;28;20036;-79
2023/01/17 05:50:34;;;;;;;4.43;1.02;;;0.40;99.90;;;;;;5045014;28;20044;-80
2023/01/17 05:53:03;;;;;;;9.48;1.02;;;0.40;99.90;;;;;;5023491;28;20037;-79
2023/01/17 05:55:30;;;;;;;4.95;1.20;;;0.50;99.90;;;;;;5016777;28;20071;-79
2023/01/17 05:57:55;;;;;;;5.65;1.13;;;0.50;99.90;;;;;;5033268;28;20604;-79
2023/01/17 06:00:22;;;;;;;9.43;1.00;;;0.60;99.90;;;;;;5045151;28;20037;-79
2023/01/17 06:02:48;;;;;;;3.20;0.63;;;0.70;99.90;;;;;;5037423;28;20079;-79
2023/01/17 06:05:14;;;;;;;4.88;0.85;;;0.80;99.90;;;;;;5012551;28;20072;-79
2023/01/17 06:07:44;;;;;;;5.45;1.00;;;0.80;99.90;;;;;;5031870;28;20040;-79
2023/01/17 06:10:10;;;;;;;6.25;0.77;;;0.70;99.90;;;;;;5037387;28;20045;-79
2023/01/17 06:12:36;;;;;;;6.10;0.98;;;0.70;99.90;;;;;;5023477;28;20522;-79
2023/01/17 06:15:02;;;;;;;2.00;0.70;;;0.60;99.90;;;;;;5045928;28;20033;-79
2023/01/17 06:17:27;;;;;;;8.38;1.40;;;0.60;99.90;;;;;;5020264;28;20601;-79
2023/01/17 06:19:53;;;;;;;6.18;0.95;;;0.50;99.90;;;;;;5037614;28;20513;-79
2023/01/17 06:22:18;;;;;;;6.35;0.93;;;0.50;99.90;;;;;;5036810;28;20087;-79
2023/01/17 06:24:44;;;;;;;1.15;0.47;;;0.50;99.90;;;;;;5020368;28;20151;-79
2023/01/17 06:27:10;;;;;;;1.20;0.22;;;0.40;99.90;;;;;;5026905;28;20037;-79
2023/01/17 06:29:36;;;;;;;5.47;0.55;;;0.40;99.90;;;;;;5022598;28;20045;-79
2023/01/17 06:32:02;;;;;;;5.53;0.40;;;0.40;99.90;;;;;;5001292;28;20380;-80
2023/01/17 06:34:28;;;;;;;5.68;0.88;;;0.30;99.90;;;;;;5029047;28;20033;-79
2023/01/17 06:36:53;;;;;;;11.32;1.70;;;0.30;99.90;;;;;;5037497;28;20040;-80
2023/01/17 06:39:19;;;;;;;3.70;0.65;;;0.20;99.90;;;;;;5037002;28;20037;-80
2023/01/17 06:41:45;;;;;;;7.97;1.80;;;0.20;99.90;;;;;;5034419;28;20052;-80
2023/01/17 06:44:10;;;;;;;3.40;0.77;;;0.20;99.90;;;;;;5023197;28;20095;-80
2023/01/17 06:46:36;;;;;;;8.57;1.20;;;0.20;99.90;;;;;;5039522;28;20160;-80
2023/01/17 06:49:02;;;;;;;6.18;0.85;;;0.30;99.90;;;;;;5039701;28;20045;-80
2023/01/17 06:51:27;;;;;;;9.88;1.35;;;0.30;99.90;;;;;;5024689;28;20044;-80
2023/01/17 06:53:53;;;;;;;5.40;1.17;;;0.40;99.90;;;;;;5039705;28;20041;-80
2023/01/17 06:56:19;;;;;;;7.72;1.27;;;0.40;99.90;;;;;;5023609;28;20044;-80
2023/01/17 06:58:51;;;;;;;7.43;1.45;;;0.40;99.90;;;;;;5022678;28;20037;-80
2023/01/17 07:01:17;;;;;;;1.38;0.40;;;0.50;99.90;;;;;;5032891;28;20116;-80
2023/01/17 07:03:43;;;;;;;7.38;1.67;;;0.50;99.90;;;;;;5032871;28;20033;-80
2023/01/17 07:06:09;;;;;;;7.45;1.35;;;0.50;99.90;;;;;;5033169;28;20037;-80
2023/01/17 07:08:35;;;;;;;6.15;0.50;;;0.50;99.90;;;;;;5042335;28;20041;-80
2023/01/17 07:11:03;;;;;;;9.18;1.63;;;0.50;99.90;;;;;;5023821;28;20041;-80
2023/01/17 07:13:32;;;;;;;4.28;1.27;;;0.40;99.90;;;;;;5025008;28;20033;-80
2023/01/17 07:15:59;;;;;;;8.35;1.45;;;0.40;99.90;;;;;;5042894;28;20041;-80
2023/01/17 07:18:25;;;;;;;2.17;0.50;;;0.30;99.90;;;;;;5025374;28;20116;-80
2023/01/17 07:20:51;;;;;;;6.40;1.60;;;0.30;99.90;;;;;;5019560;28;20467;-81
2023/01/17 07:23:19;;;;;;;9.57;1.70;;;0.30;99.90;;;;;;5038435;28;20093;-77
2023/01/17 07:25:58;;;;;;;7.10;1.73;;;0.30;99.90;;;;;;5051583;28;20094;-79
2023/01/17 07:28:25;;;;;;;4.57;1.52;;;0.40;99.90;;;;;;5039185;28;20123;-79
2023/01/17 07:30:51;;;;;;;7.28;2.03;;;0.40;99.90;;;;;;5022358;28;20033;-77
2023/01/17 07:33:17;;;;;;;8.00;2.25;;;0.40;99.90;;;;;;5017484;28;20060;-81
2023/01/17 07:35:43;;;;;;;5.82;1.98;;;0.40;99.90;;;;;;5020227;28;20044;-79
2023/01/17 07:38:13;;;;;;;3.72;1.92;;;0.50;99.90;;;;;;5034768;28;20033;-77
2023/01/17 07:40:39;;;;;;;6.40;1.85;;;0.50;99.90;;;;;;5036977;28;20029;-79
2023/01/17 07:43:12;;;;;;;4.53;1.27;;;0.50;99.90;;;;;;5019461;28;20087;-77
2023/01/17 07:45:49;;;;;;;4.60;1.02;;;0.50;99.90;;;;;;5036169;28;20041;-78
2023/01/17 07:48:16;;;;;;;2.30;0.80;;;0.50;99.90;;;;;;5019253;28;20486;-78
2023/01/17 07:50:41;;;;;;;6.57;1.63;;;0.50;99.90;;;;;;5035928;28;20051;-78
2023/01/17 07:53:07;;;;;;;8.63;2.28;;;0.50;99.90;;;;;;5018797;28;21786;-77
2023/01/17 07:55:32;;;;;;;6.93;3.55;;;0.60;99.90;;;;;;5019024;28;20325;-78
2023/01/17 07:57:58;;;;;;;8.82;3.30;;;0.60;99.90;;;;;;5044240;28;20029;-77
2023/01/17 08:00:27;;;;;;;12.10;3.00;;;0.60;99.90;;;;;;5036065;28;20029;-78
2023/01/17 08:02:57;;;;;;;7.07;2.33;;;0.60;99.90;;;;;;5026529;28;20275;-79
2023/01/17 08:05:23;;;;;;;5.38;1.30;;;0.60;99.90;;;;;;5035647;28;20033;-79
2023/01/17 08:07:49;;;;;;;5.68;2.42;;;0.60;99.90;;;;;;5022181;28;20040;-81
2023/01/17 08:10:17;;;;;;;7.40;2.47;;;0.50;99.90;;;;;;5024992;28;20040;-81
2023/01/17 08:12:47;;;;;;;4.57;2.70;;;0.50;99.90;;;;;;5041646;28;20126;-81
2023/01/17 08:15:14;;;;;;;9.02;2.55;;;0.50;99.90;;;;;;5039342;28;20040;-80
2023/01/17 08:17:45;;;;;;;4.63;2.80;;;0.40;99.90;;;;;;5033315;28;20043;-81
2023/01/17 08:20:12;;;;;;;8.57;3.10;;;0.40;99.90;;;;;;5057218;28;20094;-80
2023/01/17 08:22:37;;;;;;;8.60;3.22;;;0.40;99.90;;;;;;5022510;28;20473;-82
2023/01/17 08:25:03;;;;;;;8.68;3.47;;;0.40;99.90;;;;;;5020050;28;20087;-82
2023/01/17 08:27:29;;;;;;;6.90;3.35;;;0.30;99.90;;;;;;5039805;28;20124;-82
2023/01/17 08:29:54;;;;;;;2.33;1.17;;;0.30;99.90;;;;;;5041244;28;20048;-79
2023/01/17 08:32:20;;;;;;;9.63;3.50;;;0.30;99.90;;;;;;5038317;28;20456;-82
2023/01/17 08:34:46;;;;;;;7.95;3.28;;;0.30;99.90;;;;;;5036897;28;20041;-81
2023/01/17 08:37:12;;;;;;;11.48;3.40;;;0.30;99.90;;;;;;5023465;28;20059;-78
2023/01/17 08:39:38;;;;;;;10.90;3.50;;;0.40;99.90;;;;;;5019088;28;20469;-78
2023/01/17 08:42:03;;;;;;;10.20;3.47;;;0.40;99.90;;;;;;5034747;28;20491;-78
2023/01/17 08:44:29;;;;;;;6.90;1.63;;;0.40;99.90;;;;;;5043366;28;20127;-78
2023/01/17 08:46:55;;;;;;;2.97;1.23;;;0.40;99.90;;;;;;5051458;28;20048;-80
2023/01/17 08:49:20;;;;;;;2.33;1.77;;;0.40;99.90;;;;;;5033035;28;20033;-78
2023/01/17 08:51:46;;;;;;;11.05;3.42;;;0.40;99.90;;;;;;5043541;28;20288;-78
2023/01/17 08:54:14;;;;;;;7.50;3.60;;;0.40;99.90;;;;;;5052021;28;20068;-79
2023/01/17 08:56:41;;;;;;;7.00;3.28;;;0.40;99.90;;;;;;5051800;28;20138;-79
2023/01/17 08:59:10;;;;;;;6.18;3.03;;;0.50;99.90;;;;;;5042999;28;20144;-80
2023/01/17 09:01:40;;;;;;;11.88;3.47;;;0.50;99.90;;;;;;5018899;28;20033;-79
2023/01/17 09:04:09;;;;;;;3.42;1.70;;;0.50;99.90;;;;;;5034476;28;20064;-78
2023/01/17 09:06:44;;;;;;;7.10;3.08;;;0.60;99.90;;;;;;5044825;28;20041;-81
2023/01/17 09:09:10;;;;;;;8.80;3.13;;;0.60;99.90;;;;;;5052104;28;20102;-79
2023/01/17 09:11:36;;;;;;;8.63;3.72;;;0.60;99.90;;;;;;5047350;28;20124;-78
2023/01/17 09:14:02;;;;;;;8.93;3.33;;;0.70;99.90;;;;;;5027716;28;20418;-79
2023/01/17 09:16:28;;;;;;;7.20;3.50;;;0.70;99.90;;;;;;5052287;28;20092;-78
2023/01/17 09:18:56;;;;;;;13.65;1.85;;;0.70;99.90;;;;;;5017004;28;20036;-81
2023/01/17 09:21:22;;;;;;;7.07;3.38;;;0.70;99.90;;;;;;5018600;28;20033;-81
2023/01/17 09:23:48;;;;;;;7.55;3.08;;;0.80;99.90;;;;;;5036578;28;20037;-80
2023/01/17 09:26:19;;;;;;;8.25;2.95;;;0.80;99.90;;;;;;5019434;28;20040;-79
2023/01/17 09:28:45;;;;;;;7.20;2.83;;;0.80;99.90;;;;;;5016596;28;20075;-81
2023/01/17 09:31:10;;;;;;;14.18;3.40;;;0.90;99.90;;;;;;5018887;28;20095;-81
2023/01/17 09:33:40;;;;;;;7.43;2.97;;;0.90;99.90;;;;;;5014793;28;20047;-81
2023/01/17 09:36:06;;;;;;;6.55;2.85;;;1.00;99.90;;;;;;5042612;28;20072;-81
2023/01/17 09:38:32;;;;;;;9.20;2.88;;;1.10;99.90;;;;;;5026654;28;20032;-80
2023/01/17 09:40:57;;;;;;;3.95;1.65;;;1.10;99.90;;;;;;5037057;28;20384;-81
2023/01/17 09:43:46;;;;;;;8.38;3.28;;;1.20;99.90;;;;;;5019843;28;20382;-81
2023/01/17 09:46:21;;;;;;;9.13;3.55;;;1.20;99.90;;;;;;4985996;28;20048;-83
2023/01/17 09:49:07;;;;;;;6.80;2.70;;;1.30;99.90;;;;;;5047312;28;20037;-81
2023/01/17 09:51:32;;;;;;;6.40;3.00;;;1.30;99.90;;;;;;5023805;28;20048;-80
2023/01/17 09:53:59;;;;;;;5.53;2.95;;;1.50;99.90;;;;;;5024775;28;20037;-81
2023/01/17 09:56:41;;;;;;;9.27;2.70;;;1.60;99.90;;;;;;5024654;28;20523;-80
2023/01/17 09:59:29;;;;;;;7.35;3.00;;;1.60;99.90;;;;;;5023867;28;20083;-82
2023/01/17 10:02:15;;;;;;;7.68;3.25;;;1.70;99.90;;;;;;5025346;28;20041;-79
2023/01/17 10:05:17;;;;;;;7.82;3.08;;;1.80;99.90;;;;;;5025526;28;20052;-80
2023/01/17 10:07:48;;;;;;;9.98;3.17;;;1.80;99.90;;;;;;5030284;28;20051;-80
2023/01/17 10:10:18;;;;;;;6.93;3.20;;;1.90;99.90;;;;;;5032697;28;20044;-80
2023/01/17 10:13:02;;;;;;;6.45;3.15;;;2.00;99.90;;;;;;5024257;28;20029;-79
2023/01/17 10:15:54;;;;;;;7.68;3.67;;;2.00;99.90;;;;;;5020322;28;20037;-80
2023/01/17 10:18:55;;;;;;;7.10;3.38;;;2.20;99.90;;;;;;5027418;28;20048;-77
2023/01/17 10:21:58;;;;;;;9.20;2.88;;;2.30;99.90;;;;;;5007666;28;20064;-79
2023/01/17 10:25:11;;;;;;;10.50;4.20;;;2.40;99.90;;;;;;5014502;28;20061;-81
2023/01/17 10:27:42;;;;;;;6.95;2.78;;;2.30;99.90;;;;;;5018014;28;20037;-79
2023/01/17 10:30:18;;;;;;;6.88;2.90;;;2.40;99.90;;;;;;5021197;28;20041;-81
2023/01/17 10:32:47;;;;;;;6.43;2.67;;;2.40;99.90;;;;;;5039327;28;20507;-81
2023/01/17 10:35:20;;;;;;;8.77;3.33;;;2.50;99.90;;;;;;5038466;28;20037;-78
2023/01/17 10:37:47;;;;;;;9.13;3.10;;;2.50;99.90;;;;;;5041114;28;20067;-81
2023/01/17 10:40:23;;;;;;;5.80;2.80;;;2.60;99.90;;;;;;5038426;28;20037;-78
2023/01/17 10:42:57;;;;;;;9.02;3.00;;;2.60;99.90;;;;;;5037269;28;20048;-83
2023/01/17 10:45:27;;;;;;;8.35;3.35;;;2.60;99.90;;;;;;5032096;28;20044;-78
2023/01/17 10:48:20;;;;;;;6.75;2.63;;;2.60;99.90;;;;;;5046110;28;20037;-78
2023/01/17 10:51:10;;;;;;;5.70;3.00;;;2.60;99.90;;;;;;5008063;28;20077;-78
2023/01/17 10:54:07;;;;;;;8.68;2.90;;;2.70;99.90;;;;;;5026394;28;20117;-78
2023/01/17 10:56:33;;;;;;;4.05;2.55;;;2.80;99.90;;;;;;5009446;28;20037;-78
2023/01/17 10:59:29;;;;;;;4.75;2.35;;;2.80;99.90;;;;;;5024236;28;20033;-78
2023/01/17 11:01:55;;;;;;;8.05;2.63;;;2.90;99.90;;;;;;5019436;28;20036;-79
2023/01/17 11:04:29;;;;;;;6.35;2.42;;;3.00;99.90;;;;;;5029245;28;20044;-78
2023/01/17 11:07:16;;;;;;;9.23;2.72;;;3.00;99.90;;;;;;5057942;28;20671;-78
2023/01/17 11:09:45;;;;;;;5.22;2.20;;;3.10;99.90;;;;;;5043853;28;20064;-78
2023/01/17 11:12:30;;;;;;;5.50;2.55;;;3.20;99.90;;;;;;5027742;28;20045;-78
2023/01/17 11:15:07;;;;;;;5.88;2.55;;;3.20;99.90;;;;;;5042524;28;20068;-77
2023/01/17 11:17:45;;;;;;;5.25;2.58;;;3.20;99.90;;;;;;5025894;28;20096;-78
2023/01/17 11:20:22;;;;;;;3.30;2.20;;;3.30;99.90;;;;;;5031814;28;20524;-77
2023/01/17 11:23:03;;;;;;;5.75;2.30;;;3.30;99.90;;;;;;5027050;28;20033;-78
2023/01/17 11:25:33;;;;;;;4.65;2.65;;;3.40;99.90;;;;;;5020706;28;20076;-77
2023/01/17 11:28:06;;;;;;;5.47;2.50;;;3.60;99.90;;;;;;5022069;28;20037;-81
2023/01/17 11:30:31;;;;;;;6.57;2.45;;;3.80;99.90;;;;;;5022151;28;20068;-79
2023/01/17 11:33:05;;;;;;;6.15;3.13;;;4.10;99.90;;;;;;5038887;28;20072;-78
2023/01/17 11:35:36;;;;;;;6.75;2.72;;;4.50;99.90;;;;;;5033016;28;20116;-80
2023/01/17 11:38:03;;;;;;;8.55;3.20;;;4.80;99.90;;;;;;5038262;28;20029;-78
2023/01/17 11:40:32;;;;;;;5.88;2.90;;;4.80;99.90;;;;;;5044330;28;20490;-79
2023/01/17 11:42:59;;;;;;;6.75;2.58;;;5.00;99.90;;;;;;5036924;28;20100;-79
2023/01/17 11:45:30;;;;;;;5.60;2.90;;;5.00;99.90;;;;;;5037781;28;20368;-78
2023/01/17 11:48:16;;;;;;;6.88;3.03;;;5.10;99.90;;;;;;5021050;28;20052;-78
2023/01/17 11:50:50;;;;;;;6.18;2.40;;;5.30;99.90;;;;;;5013185;28;20060;-77
2023/01/17 11:53:19;;;;;;;11.55;3.08;;;5.50;99.90;;;;;;5023087;28;20503;-79
2023/01/17 11:55:54;;;;;;;5.05;2.20;;;5.70;99.90;;;;;;5040404;28;20048;-77
2023/01/17 11:58:22;;;;;;;6.03;2.03;;;6.00;99.90;;;;;;5018147;28;20517;-79
2023/01/17 12:00:57;;;;;;;6.45;2.60;;;6.20;99.90;;;;;;5035501;28;20045;-78
2023/01/17 12:03:25;;;;;;;5.57;2.25;;;6.30;99.90;;;;;;5032006;28;20413;-76
2023/01/17 12:06:06;;;;;;;3.88;1.88;;;6.60;99.90;;;;;;5031928;28;20109;-79
2023/01/17 12:08:56;;;;;;;4.95;2.40;;;6.80;99.90;;;;;;5032997;28;20037;-77
2023/01/17 12:11:34;;;;;;;5.13;2.13;;;7.00;99.90;;;;;;5028986;28;20044;-78
2023/01/17 12:14:24;;;;;;;5.13;2.00;;;7.10;99.90;;;;;;5038521;28;20087;-78
2023/01/17 12:17:29;;;;;;;5.30;1.85;;;7.10;99.90;;;;;;5031423;28;20045;-77
2023/01/17 12:20:00;;;;;;;4.70;1.90;;;7.10;99.90;;;;;;5031755;28;20491;-76
2023/01/17 12:22:34;;;;;;;3.60;2.03;;;7.00;99.90;;;;;;5035314;28;20240;-77
2023/01/17 12:25:27;;;;;;;4.82;2.28;;;6.90;99.90;;;;;;5047602;28;20071;-76
2023/01/17 12:28:31;;;;;;;4.07;1.85;;;6.80;99.90;;;;;;5030127;28;20045;-77
2023/01/17 12:31:16;;;;;;;6.43;1.88;;;6.70;99.90;;;;;;5013573;28;20041;-77
2023/01/17 12:34:13;;;;;;;7.65;2.30;;;6.70;99.90;;;;;;5026737;28;20033;-77
2023/01/17 12:36:47;;;;;;;5.10;2.25;;;6.70;99.90;;;;;;5041786;28;20145;-77
2023/01/17 12:39:17;;;;;;;5.13;2.08;;;6.60;99.90;;;;;;5031787;28;20036;-76
2023/01/17 12:42:04;;;;;;;3.67;1.80;;;6.50;99.90;;;;;;5047195;28;20044;-76
2023/01/17 12:45:04;;;;;;;4.22;2.00;;;6.70;99.90;;;;;;5030255;28;20048;-77
2023/01/17 12:47:35;;;;;;;5.97;2.60;;;6.50;99.90;;;;;;5023634;28;20043;-77
2023/01/17 12:50:38;;;;;;;4.45;1.90;;;6.70;99.90;;;;;;5035203;28;20037;-76
2023/01/17 12:53:28;;;;;;;5.80;1.80;;;6.80;99.90;;;;;;5047034;28;20051;-77
2023/01/17 12:56:21;;;;;;;3.58;1.70;;;7.00;99.90;;;;;;5047093;28;20072;-76
2023/01/17 12:58:53;;;;;;;5.95;2.25;;;7.00;99.90;;;;;;5026749;28;20037;-77
2023/01/17 13:01:30;;;;;;;5.95;1.50;;;6.90;99.90;;;;;;5044319;28;20041;-77
2023/01/17 13:04:17;;;;;;;4.07;1.30;;;6.70;99.90;;;;;;5046274;28;20123;-78
2023/01/17 13:06:43;;;;;;;4.10;1.20;;;6.50;99.90;;;;;;5030647;28;20045;-76
2023/01/17 13:09:14;;;;;;;4.82;1.42;;;6.30;99.90;;;;;;5031433;28;20044;-76
2023/01/17 13:11:48;;;;;;;7.28;1.67;;;6.20;99.90;;;;;;5045082;28;20071;-76
2023/01/17 13:14:14;;;;;;;3.80;1.50;;;6.00;99.90;;;;;;5034778;28;20492;-77
2023/01/17 13:16:56;;;;;;;3.20;1.70;;;5.90;99.90;;;;;;5033009;28;20037;-76
2023/01/17 13:19:31;;;;;;;2.97;1.10;;;5.70;99.90;;;;;;5016257;28;20065;-76
2023/01/17 13:21:59;;;;;;;3.13;1.33;;;5.50;99.90;;;;;;5022486;28;20080;-80
2023/01/17 13:24:45;;;;;;;4.22;1.35;;;5.40;99.90;;;;;;5026838;28;20454;-80
2023/01/17 13:27:34;;;;;;;4.25;1.70;;;5.30;99.90;;;;;;5028240;28;20095;-79
2023/01/17 13:30:22;;;;;;;4.32;1.35;;;5.10;99.90;;;;;;5036041;28;20037;-77
2023/01/17 13:33:10;;;;;;;3.78;1.42;;;5.00;99.90;;;;;;5019735;28;20044;-76
2023/01/17 13:35:56;;;;;;;3.08;1.45;;;4.90;99.90;;;;;;5043040;28;20132;-77
2023/01/17 13:38:30;;;;;;;5.40;1.45;;;4.90;99.90;;;;;;5029339;28;20127;-78
2023/01/17 13:41:14;;;;;;;3.78;1.90;;;4.90;99.90;;;;;;5029383;28;20044;-76
2023/01/17 13:44:20;;;;;;;3.95;1.33;;;4.80;99.90;;;;;;5032984;28;20051;-75
2023/01/17 13:46:51;;;;;;;4.72;1.70;;;4.80;99.90;;;;;;5033912;28;20076;-76
2023/01/17 13:49:33;;;;;;;4.25;1.80;;;4.70;99.90;;;;;;5024406;28;20041;-77
2023/01/17 13:52:17;;;;;;;6.28;1.73;;;4.60;99.90;;;;;;5033107;28;20043;-79
2023/01/17 13:54:49;;;;;;;4.72;1.67;;;4.60;99.90;;;;;;5035320;28;20041;-78
2023/01/17 13:57:31;;;;;;;3.97;2.05;;;4.60;99.90;;;;;;5039037;28;20041;-79
2023/01/17 14:00:20;;;;;;;3.25;1.45;;;4.50;99.90;;;;;;5033312;28;20047;-76
2023/01/17 14:02:50;;;;;;;3.95;1.45;;;4.50;99.90;;;;;;5033785;28;20124;-76
2023/01/17 14:05:22;;;;;;;6.97;1.83;;;4.40;99.90;;;;;;5018219;28;20152;-76
2023/01/17 14:08:03;;;;;;;2.47;1.52;;;4.40;99.90;;;;;;5031177;28;20076;-78
2023/01/17 14:10:42;;;;;;;3.28;1.27;;;4.30;99.90;;;;;;5016614;28;20554;-78
2023/01/17 14:13:44;;;;;;;5.18;1.38;;;4.30;99.90;;;;;;5031178;28;20490;-78
2023/01/17 14:16:21;;;;;;;5.70;1.58;;;4.20;99.90;;;;;;4954814;28;20097;-78
2023/01/17 14:18:47;;;;;;;4.38;1.80;;;4.20;99.90;;;;;;5019472;28;20052;-78
2023/01/17 14:21:21;;;;;;;3.75;2.00;;;4.10;99.90;;;;;;5035539;28;20506;-78
2023/01/17 14:24:11;;;;;;;5.13;1.92;;;4.10;99.90;;;;;;5030821;28;20037;-78
2023/01/17 14:26:57;;;;;;;8.82;2.00;;;4.10;99.90;;;;;;5024344;28;20533;-78
2023/01/17 14:29:42;;;;;;;2.38;1.55;;;4.10;99.90;;;;;;5033549;28;20037;-78
2023/01/17 14:32:11;;;;;;;3.70;1.75;;;4.20;99.90;;;;;;5033514;28;20040;-78
2023/01/17 14:34:36;;;;;;;4.65;1.60;;;4.10;99.90;;;;;;5024954;28;20474;-79
2023/01/17 14:37:23;;;;;;;4.18;1.77;;;4.10;99.90;;;;;;5020060;28;20061;-77
2023/01/17 14:39:50;;;;;;;5.03;1.70;;;4.10;99.90;;;;;;5035121;28;20108;-78
2023/01/17 14:42:19;;;;;;;2.97;1.65;;;4.10;99.90;;;;;;5035774;28;20029;-77
2023/01/17 14:45:15;;;;;;;4.57;1.88;;;4.10;99.90;;;;;;5036745;28;20036;-79